Time;durP1;ratioP1;P1;durP2;ratioP2;P2;SDS_P1;SDS_P2;PMS_P1;PMS_P2;Temp;Humidity;BMP_temperature;BMP_pressure;BME280_temperature;BME280_humidity;BME280_pressure;Samples;Min_cycle;Max_cycle;Signal;HPM_P1;HPM_P2
2022/09/22 00:00:42;;;;;;;4.45;2.90;;;9.10;73.10;;;7.75;96.13;96662.44;4974581;28;20499;-65
2022/09/22 00:03:08;;;;;;;4.00;2.70;;;9.10;73.10;;;7.73;95.65;96674.06;4975602;28;20039;-65
2022/09/22 00:05:34;;;;;;;6.03;2.70;;;9.10;73.00;;;7.65;95.25;96666.97;4963774;28;20066;-65
2022/09/22 00:08:00;;;;;;;6.57;2.90;;;9.10;73.20;;;7.67;95.92;96672.88;4963556;28;20518;-65
2022/09/22 00:10:27;;;;;;;3.40;2.42;;;9.10;73.40;;;7.65;96.56;96669.56;4947967;28;20039;-65
2022/09/22 00:12:53;;;;;;;5.40;2.85;;;9.00;73.50;;;7.59;96.40;96672.84;4981489;28;20052;-65
2022/09/22 00:15:19;;;;;;;3.92;2.60;;;8.90;73.70;;;7.56;96.71;96673.97;4949674;28;20050;-65
2022/09/22 00:17:45;;;;;;;4.05;2.85;;;8.90;73.80;;;7.53;96.84;96669.03;4949430;28;20568;-65
2022/09/22 00:20:12;;;;;;;4.68;2.60;;;8.80;73.90;;;7.49;97.36;96665.09;4960722;28;20046;-65
2022/09/22 00:22:39;;;;;;;4.43;2.78;;;8.80;74.00;;;7.42;97.69;96661.44;4962552;28;20047;-65
2022/09/22 00:25:07;;;;;;;3.65;2.70;;;8.80;74.30;;;7.38;98.00;96660.94;4991047;28;20035;-65
2022/09/22 00:27:32;;;;;;;5.63;2.95;;;8.70;74.50;;;7.35;97.95;96656.03;4961752;28;20078;-65
2022/09/22 00:29:59;;;;;;;4.10;2.90;;;8.60;74.50;;;7.31;98.36;96657.31;4981318;28;20042;-65
2022/09/22 00:32:25;;;;;;;5.53;3.13;;;8.60;74.70;;;7.28;97.68;96654.19;4961936;28;20047;-65
2022/09/22 00:34:51;;;;;;;4.57;3.00;;;8.60;74.80;;;7.24;98.76;96644.97;4955679;28;20595;-65
2022/09/22 00:37:17;;;;;;;5.00;3.42;;;8.60;74.90;;;7.23;98.80;96638.94;4964100;28;20039;-65
2022/09/22 00:39:43;;;;;;;6.03;3.08;;;8.60;75.00;;;7.23;98.72;96635.50;4953270;28;20124;-65
2022/09/22 00:42:11;;;;;;;4.07;3.03;;;8.60;75.00;;;7.22;98.49;96637.28;4962980;28;20061;-65
2022/09/22 00:44:40;;;;;;;4.75;3.13;;;8.60;75.00;;;7.21;99.22;96638.25;4945689;28;20084;-65
2022/09/22 00:47:27;;;;;;;3.97;3.28;;;8.60;74.90;;;7.19;100.00;96640.22;4982109;28;20138;-65
2022/09/22 00:50:17;;;;;;;5.00;2.85;;;8.60;74.70;;;7.17;100.00;96636.94;4966040;28;20049;-65
2022/09/22 00:53:04;;;;;;;3.92;2.70;;;8.60;74.80;;;7.15;100.00;96631.03;4959582;28;20038;-65
2022/09/22 00:55:57;;;;;;;6.93;2.90;;;8.60;74.70;;;7.15;100.00;96630.22;4962438;28;20533;-65
2022/09/22 00:58:34;;;;;;;5.50;3.13;;;8.60;74.80;;;7.11;99.90;96621.88;4965933;28;20035;-65
2022/09/22 01:01:00;;;;;;;6.78;2.83;;;8.50;74.70;;;7.10;99.15;96614.19;4946685;28;20116;-65
2022/09/22 01:03:28;;;;;;;4.63;2.85;;;8.50;74.80;;;7.07;99.04;96620.53;4927798;28;20554;-65
2022/09/22 01:05:56;;;;;;;4.50;2.55;;;8.50;74.80;;;7.04;99.71;96608.59;4959863;28;20050;-65
2022/09/22 01:08:22;;;;;;;6.97;2.95;;;8.40;74.60;;;7.00;98.91;96609.03;4979410;28;20542;-65
2022/09/22 01:10:48;;;;;;;4.57;2.97;;;8.40;74.70;;;6.98;99.08;96616.22;4946405;28;20443;-65
2022/09/22 01:14:06;;;;;;;4.30;2.70;;;8.40;74.80;;;6.96;100.00;96613.75;4984099;28;20116;-65
2022/09/22 01:16:48;;;;;;;4.97;3.00;;;8.30;74.70;;;6.90;100.00;96605.72;4964615;28;20675;-65
2022/09/22 01:19:54;;;;;;;6.80;3.13;;;8.20;74.80;;;6.83;100.00;96612.53;4964459;28;20060;-65
2022/09/22 01:22:28;;;;;;;4.57;2.90;;;8.20;75.00;;;6.80;100.00;96611.06;4958169;28;20090;-65
2022/09/22 01:25:39;;;;;;;6.20;3.10;;;8.10;74.50;;;6.72;100.00;96606.56;4978440;28;20034;-65
2022/09/22 01:28:38;;;;;;;4.53;2.70;;;8.10;74.50;;;6.66;100.00;96612.41;4966548;28;20887;-65
2022/09/22 01:31:56;;;;;;;4.63;2.90;;;8.00;75.00;;;6.58;100.00;96607.13;4962429;28;20038;-65
2022/09/22 01:34:27;;;;;;;4.22;2.97;;;7.90;75.20;;;6.53;99.30;96606.75;4967660;28;20038;-65
2022/09/22 01:37:29;;;;;;;6.47;3.38;;;7.80;75.30;;;6.50;100.00;96604.44;4960495;28;20062;-65
2022/09/22 01:40:07;;;;;;;4.05;2.88;;;7.80;75.50;;;6.47;100.00;96594.28;4973699;28;20038;-65
2022/09/22 01:42:43;;;;;;;6.65;3.22;;;7.80;75.70;;;6.44;100.00;96598.03;4933936;28;20046;-65
2022/09/22 01:45:14;;;;;;;5.30;3.20;;;7.80;75.50;;;6.43;100.00;96592.94;4964720;28;20395;-65
2022/09/22 01:47:47;;;;;;;4.47;3.10;;;7.80;75.40;;;6.42;100.00;96599.16;4941890;28;20712;-65
2022/09/22 01:50:36;;;;;;;7.22;3.25;;;7.80;75.70;;;6.42;100.00;96599.16;4942532;28;20479;-65
2022/09/22 01:53:14;;;;;;;6.97;3.47;;;7.90;75.60;;;6.41;100.00;96602.75;4929544;28;20483;-65
2022/09/22 01:55:44;;;;;;;5.00;3.20;;;7.80;75.50;;;6.39;100.00;96602.06;4963050;28;20035;-65
2022/09/22 01:58:19;;;;;;;5.00;3.50;;;7.80;75.70;;;6.40;100.00;96606.31;4954542;28;20038;-65
2022/09/22 02:00:54;;;;;;;4.80;2.83;;;7.80;75.90;;;6.38;100.00;96597.81;4958548;28;20565;-65
2022/09/22 02:03:29;;;;;;;5.65;3.30;;;7.80;75.80;;;6.36;100.00;96597.97;4930199;28;20031;-65
2022/09/22 02:06:03;;;;;;;5.20;3.25;;;7.80;76.00;;;6.38;100.00;96597.81;4943837;28;20118;-65
2022/09/22 02:08:32;;;;;;;6.65;3.22;;;7.80;76.20;;;6.39;100.00;96604.69;4961610;28;20410;-65
2022/09/22 02:11:03;;;;;;;4.40;2.88;;;7.80;76.10;;;6.37;100.00;96598.78;4961864;28;20435;-65
2022/09/22 02:13:28;;;;;;;5.17;3.03;;;7.80;76.00;;;6.29;100.00;96589.06;4946194;28;20112;-65
2022/09/22 02:16:00;;;;;;;5.63;2.97;;;7.70;75.40;;;6.29;100.00;96593.47;4946900;28;20478;-65
2022/09/22 02:18:41;;;;;;;6.22;4.30;;;7.60;75.40;;;6.22;100.00;96587.22;4934002;28;20042;-65
2022/09/22 02:21:07;;;;;;;65.18;40.08;;;7.70;75.30;;;6.21;100.00;96594.22;4930027;28;20126;-65
2022/09/22 02:23:34;;;;;;;47.97;30.85;;;7.60;76.10;;;6.21;100.00;96603.84;4965930;28;20103;-65
2022/09/22 02:26:02;;;;;;;14.48;9.20;;;7.60;76.70;;;6.19;100.00;96595.34;5028216;28;20039;-65
2022/09/22 02:28:30;;;;;;;33.42;23.23;;;7.60;76.60;;;6.21;100.00;96601.25;4933744;28;20081;-65
2022/09/22 02:30:56;;;;;;;76.35;48.28;;;7.70;76.80;;;6.22;100.00;96600.28;4960199;28;20118;-65
2022/09/22 02:33:21;;;;;;;32.67;20.73;;;7.60;77.10;;;6.22;100.00;96601.09;4946240;28;20045;-65
2022/09/22 02:35:50;;;;;;;11.13;7.10;;;7.60;77.20;;;6.20;100.00;96597.81;4927552;28;20035;-65
2022/09/22 02:38:19;;;;;;;7.53;4.57;;;7.70;77.00;;;6.23;100.00;96594.91;4959537;28;20035;-65
2022/09/22 02:40:57;;;;;;;4.65;3.20;;;7.70;76.70;;;6.22;100.00;96593.25;4928326;28;20069;-65
2022/09/22 02:43:35;;;;;;;5.63;3.78;;;7.70;76.70;;;6.20;100.00;96595.22;4931315;28;20039;-65
2022/09/22 02:46:31;;;;;;;6.20;3.38;;;7.60;76.80;;;6.20;100.00;96594.38;4940887;28;20054;-65
2022/09/22 02:49:00;;;;;;;4.30;2.97;;;7.70;76.90;;;6.19;100.00;96593.56;4948753;28;20038;-65
2022/09/22 02:51:28;;;;;;;5.07;3.05;;;7.60;76.70;;;6.14;100.00;96591.41;4968826;28;20035;-65
2022/09/22 02:53:54;;;;;;;4.05;3.05;;;7.60;76.50;;;6.14;100.00;96594.00;4946708;28;20031;-65
2022/09/22 02:56:19;;;;;;;4.32;3.13;;;7.60;76.40;;;6.12;100.00;96595.97;4974009;28;20542;-66
2022/09/22 02:58:45;;;;;;;6.40;3.05;;;7.60;76.30;;;6.09;100.00;96604.06;4956352;28;20039;-65
2022/09/22 03:01:11;;;;;;;5.70;3.63;;;7.60;76.30;;;6.06;100.00;96599.16;4995120;28;20033;-64
2022/09/22 03:03:36;;;;;;;81.28;49.25;;;7.50;76.40;;;6.03;100.00;96593.41;4967589;28;20035;-66
2022/09/22 03:06:02;;;;;;;21.70;14.00;;;7.50;76.40;;;6.01;100.00;96601.38;5051607;28;20058;-65
2022/09/22 03:08:28;;;;;;;8.65;4.65;;;7.50;76.40;;;6.00;100.00;96604.97;4978634;28;20137;-66
2022/09/22 03:10:53;;;;;;;6.38;4.13;;;7.50;76.20;;;6.00;100.00;96604.16;4974950;28;20459;-64
2022/09/22 03:13:19;;;;;;;6.80;3.30;;;7.50;76.10;;;5.95;100.00;96599.38;4966814;28;20060;-66
2022/09/22 03:15:45;;;;;;;7.07;3.70;;;7.50;76.00;;;5.93;100.00;96598.69;4970790;28;20039;-65
2022/09/22 03:18:11;;;;;;;5.97;3.72;;;7.40;76.10;;;5.92;100.00;96597.06;4996327;28;20131;-65
2022/09/22 03:20:37;;;;;;;31.80;19.85;;;7.40;76.30;;;5.93;100.00;96603.94;4958923;28;20122;-65
2022/09/22 03:23:02;;;;;;;19.90;11.57;;;7.50;77.30;;;5.93;100.00;96600.50;5004087;28;20372;-65
2022/09/22 03:25:28;;;;;;;15.05;9.63;;;7.40;76.60;;;5.90;100.00;96595.56;5028972;28;20123;-64
2022/09/22 03:27:54;;;;;;;9.55;6.80;;;7.40;75.90;;;5.88;100.00;96597.44;5033551;28;20136;-65
2022/09/22 03:30:19;;;;;;;10.70;7.15;;;7.40;76.00;;;5.83;100.00;96590.88;5022250;28;20054;-65
2022/09/22 03:32:45;;;;;;;9.25;5.15;;;7.40;76.00;;;5.81;100.00;96589.38;4967491;28;20031;-65
2022/09/22 03:35:11;;;;;;;7.28;5.15;;;7.30;75.90;;;5.79;100.00;96586.09;4966417;28;20410;-65
2022/09/22 03:37:37;;;;;;;9.35;6.10;;;7.30;75.60;;;5.76;100.00;96600.28;4985472;28;20118;-65
2022/09/22 03:40:03;;;;;;;7.05;4.57;;;7.20;75.60;;;5.72;100.00;96590.28;4974293;28;20413;-68
2022/09/22 03:42:29;;;;;;;5.20;3.25;;;7.20;75.40;;;5.69;100.00;96595.81;5043376;28;20452;-68
2022/09/22 03:44:55;;;;;;;6.57;3.40;;;7.20;75.50;;;5.67;100.00;96592.53;4991058;28;20027;-68
2022/09/22 03:47:20;;;;;;;4.78;3.05;;;7.10;75.70;;;5.62;100.00;96589.50;4967808;28;20064;-67
2022/09/22 03:49:46;;;;;;;4.45;2.63;;;7.10;75.80;;;5.58;100.00;96581.16;4949502;28;20043;-68
2022/09/22 03:52:12;;;;;;;4.45;3.00;;;7.10;75.80;;;5.56;100.00;96582.28;4968619;28;20039;-67
2022/09/22 03:54:38;;;;;;;4.93;2.65;;;7.00;75.60;;;5.53;100.00;96592.03;4986308;28;20498;-67
2022/09/22 03:57:04;;;;;;;5.30;3.10;;;6.90;75.60;;;5.49;100.00;96588.06;5034254;28;20457;-68
2022/09/22 03:59:30;;;;;;;3.92;2.70;;;6.90;75.70;;;5.46;100.00;96590.97;5002907;28;20045;-65
2022/09/22 04:01:55;;;;;;;3.95;2.70;;;6.90;75.90;;;5.42;100.00;96583.56;4970671;28;20081;-65
2022/09/22 04:04:21;;;;;;;5.65;3.20;;;6.80;76.00;;;5.40;100.00;96590.72;4964738;28;20096;-65
2022/09/22 04:06:47;;;;;;;5.18;3.45;;;6.80;76.20;;;5.36;100.00;96590.19;4992626;28;20061;-66
2022/09/22 04:09:16;;;;;;;4.88;3.10;;;6.90;76.30;;;5.34;100.00;96586.09;4995652;28;20507;-66
2022/09/22 04:11:42;;;;;;;5.30;3.30;;;6.70;76.30;;;5.30;100.00;96580.34;4969207;28;20027;-66
2022/09/22 04:14:08;;;;;;;5.45;3.22;;;6.70;76.40;;;5.30;100.00;96585.56;4966968;28;20378;-63
2022/09/22 04:16:34;;;;;;;7.18;3.40;;;6.70;76.50;;;5.26;100.00;96579.00;4968702;28;20035;-64
2022/09/22 04:19:03;;;;;;;4.65;3.15;;;6.70;76.70;;;5.23;100.00;96576.69;4986924;28;20380;-65
2022/09/22 04:21:30;;;;;;;4.57;3.13;;;6.80;76.90;;;5.24;100.00;96586.13;5035784;28;20046;-64
2022/09/22 04:23:56;;;;;;;7.93;3.78;;;6.70;77.00;;;5.22;100.00;96582.84;5053140;28;20107;-66
2022/09/22 04:26:22;;;;;;;5.32;3.47;;;6.70;77.20;;;5.20;100.00;96587.38;4978888;28;20038;-64
2022/09/22 04:28:47;;;;;;;5.50;3.67;;;6.80;77.10;;;5.22;100.00;96582.84;4953443;28;20101;-62
2022/09/22 04:31:13;;;;;;;5.00;3.35;;;6.80;77.10;;;5.21;100.00;96586.44;4984586;28;20035;-65
2022/09/22 04:33:39;;;;;;;5.10;3.70;;;6.80;77.00;;;5.21;100.00;96583.81;4965798;28;20420;-66
2022/09/22 04:36:05;;;;;;;6.00;3.60;;;6.70;77.00;;;5.18;100.00;96586.69;4963848;28;20587;-66
2022/09/22 04:38:31;;;;;;;12.57;7.00;;;6.80;77.20;;;5.20;100.00;96589.97;4952253;28;20490;-66
2022/09/22 04:40:57;;;;;;;14.77;10.18;;;6.80;77.60;;;5.20;100.00;96589.97;4953576;28;20036;-66
2022/09/22 04:43:22;;;;;;;12.18;7.03;;;6.80;77.90;;;5.20;100.00;96596.03;4949212;28;20036;-66
2022/09/22 04:45:48;;;;;;;10.57;7.50;;;6.80;77.90;;;5.20;100.00;96592.59;4986186;28;20067;-66
2022/09/22 04:48:17;;;;;;;18.45;10.10;;;6.80;77.70;;;5.19;100.00;96599.59;5018191;28;20029;-66
2022/09/22 04:50:42;;;;;;;11.13;6.68;;;6.80;77.70;;;5.21;100.00;96617.72;5031104;28;20084;-67
2022/09/22 04:53:09;;;;;;;7.43;5.03;;;6.80;77.30;;;5.21;100.00;96602.06;4993259;28;20446;-66
2022/09/22 04:55:34;;;;;;;9.00;4.55;;;6.80;77.40;;;5.22;100.00;96608.94;4968421;28;20057;-66
2022/09/22 04:58:00;;;;;;;5.30;3.80;;;6.90;77.50;;;5.23;100.00;96602.75;4968028;28;20233;-67
2022/09/22 05:00:27;;;;;;;8.77;4.30;;;6.90;77.70;;;5.24;100.00;96617.44;4989424;28;20123;-66
2022/09/22 05:02:53;;;;;;;7.22;4.28;;;6.80;77.60;;;5.23;100.00;96614.00;4969116;28;20039;-67
2022/09/22 05:05:19;;;;;;;6.43;4.20;;;6.80;77.80;;;5.26;100.00;96610.28;4964158;28;20047;-66
2022/09/22 05:07:47;;;;;;;5.85;3.85;;;6.80;77.90;;;5.26;100.00;96609.47;4964718;28;20036;-67
2022/09/22 05:10:14;;;;;;;6.95;4.30;;;6.90;78.00;;;5.28;100.00;96612.75;4964882;28;20035;-67
2022/09/22 05:12:43;;;;;;;7.53;4.47;;;6.90;78.10;;;5.29;100.00;96615.22;4976241;28;20028;-67
2022/09/22 05:15:11;;;;;;;8.77;4.75;;;6.90;78.20;;;5.29;100.00;96623.03;5011048;28;20047;-67
2022/09/22 05:17:36;;;;;;;6.38;4.18;;;6.90;78.10;;;5.30;100.00;96622.06;5053019;28;20408;-67
2022/09/22 05:20:03;;;;;;;7.65;4.70;;;6.90;78.00;;;5.29;100.00;96615.22;5069254;28;20124;-67
2022/09/22 05:22:29;;;;;;;6.70;4.63;;;6.90;77.90;;;5.30;100.00;96619.47;5069502;28;20043;-66
2022/09/22 05:24:55;;;;;;;7.47;4.53;;;6.90;77.80;;;5.28;100.00;96623.19;5052097;28;20033;-66
2022/09/22 05:27:21;;;;;;;8.05;4.25;;;6.80;77.60;;;5.26;100.00;96625.94;5008226;28;20090;-67
2022/09/22 05:29:46;;;;;;;10.52;6.97;;;6.70;77.10;;;5.21;100.00;96623.75;4964828;28;20514;-68
2022/09/22 05:32:12;;;;;;;13.88;8.27;;;6.70;76.60;;;5.17;100.00;96624.16;4969132;28;20368;-67
2022/09/22 05:34:38;;;;;;;13.95;8.02;;;6.60;76.20;;;5.14;100.00;96624.44;5051859;28;20574;-67
2022/09/22 05:37:04;;;;;;;10.73;6.68;;;6.60;76.20;;;5.10;100.00;96630.94;4968992;28;20460;-67
2022/09/22 05:39:29;;;;;;;11.88;7.03;;;6.60;76.10;;;5.08;100.00;96635.47;4980283;28;20496;-68
2022/09/22 05:41:55;;;;;;;18.10;9.75;;;6.70;76.10;;;5.07;100.00;96636.44;5026900;28;20479;-67
2022/09/22 05:44:22;;;;;;;8.35;6.35;;;6.70;76.20;;;5.08;100.00;96640.69;5070241;28;20488;-67
2022/09/22 05:46:48;;;;;;;11.50;4.70;;;6.70;76.40;;;5.05;100.00;96638.34;5068498;28;20037;-67
2022/09/22 05:49:14;;;;;;;7.88;4.80;;;6.80;76.70;;;5.07;100.00;96644.25;5052213;28;20420;-67
2022/09/22 05:51:40;;;;;;;9.57;5.13;;;6.70;76.40;;;5.05;100.00;96643.56;5031892;28;20021;-67
2022/09/22 05:54:06;;;;;;;7.05;5.07;;;6.60;76.20;;;5.03;100.00;96640.28;4986821;28;20555;-68
2022/09/22 05:56:31;;;;;;;9.13;5.65;;;6.60;76.40;;;5.02;100.00;96642.06;5009454;28;20092;-68
2022/09/22 05:58:57;;;;;;;7.80;5.47;;;6.60;76.40;;;5.01;100.00;96642.22;4968077;28;20045;-68
2022/09/22 06:01:23;;;;;;;8.30;5.40;;;6.60;76.20;;;4.99;100.00;96633.72;5052062;28;20027;-67
2022/09/22 06:03:48;;;;;;;7.63;5.10;;;6.60;76.20;;;5.01;100.00;96637.00;4977330;28;20028;-68
2022/09/22 06:06:14;;;;;;;8.10;4.50;;;6.70;76.10;;;5.01;100.00;96639.59;5026689;28;20037;-68
2022/09/22 06:08:40;;;;;;;7.18;5.00;;;6.70;75.90;;;5.05;100.00;96644.38;5068291;28;20075;-67
2022/09/22 06:11:06;;;;;;;7.10;4.80;;;6.80;76.20;;;5.10;100.00;96639.56;5068626;28;20579;-67
2022/09/22 06:13:32;;;;;;;9.82;6.25;;;6.90;77.00;;;5.18;100.00;96638.84;5019943;28;20031;-67
2022/09/22 06:16:03;;;;;;;9.40;6.18;;;7.10;78.00;;;5.26;100.00;96640.75;5009157;28;20031;-67
2022/09/22 06:18:30;;;;;;;9.80;6.20;;;7.10;78.60;;;5.33;100.00;96647.03;5065280;28;20123;-67
2022/09/22 06:20:56;;;;;;;9.95;7.32;;;7.20;79.30;;;5.39;100.00;96642.06;5068175;28;20064;-68
2022/09/22 06:23:22;;;;;;;8.82;6.85;;;7.20;80.00;;;5.47;100.00;96634.38;5070783;28;20556;-68
2022/09/22 06:25:47;;;;;;;11.02;6.85;;;7.40;80.10;;;5.54;100.00;96634.59;5083390;28;20123;-68
2022/09/22 06:28:13;;;;;;;9.38;6.53;;;7.50;80.20;;;5.62;100.00;96636.47;5023616;28;20027;-67
2022/09/22 06:30:39;;;;;;;10.85;6.95;;;7.60;80.10;;;5.71;100.00;96633.00;4971656;28;20031;-67
2022/09/22 06:33:08;;;;;;;11.15;7.47;;;7.70;80.10;;;5.79;100.00;96633.09;4986716;28;20030;-68
2022/09/22 06:35:37;;;;;;;11.90;7.57;;;7.70;80.10;;;5.88;100.00;96631.38;4986121;28;20031;-67
2022/09/22 06:38:06;;;;;;;9.57;7.18;;;7.90;79.90;;;6.00;100.00;96631.06;4970278;28;20110;-67
2022/09/22 06:40:35;;;;;;;9.93;7.00;;;8.00;80.00;;;6.11;100.00;96633.50;5028428;28;20088;-68
2022/09/22 06:43:06;;;;;;;19.38;7.50;;;8.10;79.80;;;6.21;100.00;96632.59;5031941;28;20032;-68
2022/09/22 06:45:32;;;;;;;12.48;6.65;;;8.20;79.30;;;6.32;100.00;96627.13;5022828;28;20160;-67
2022/09/22 06:47:59;;;;;;;10.05;7.70;;;8.40;78.90;;;6.44;100.00;96623.34;4975622;28;20043;-68
2022/09/22 06:50:28;;;;;;;17.63;7.32;;;8.50;78.80;;;6.57;100.00;96623.78;5012707;28;20123;-67
2022/09/22 06:53:00;;;;;;;11.32;7.00;;;8.70;78.40;;;6.67;100.00;96621.91;4990951;28;20031;-68
2022/09/22 06:55:29;;;;;;;12.60;6.97;;;8.90;77.80;;;6.84;100.00;96624.63;4996185;28;20031;-67
2022/09/22 06:57:58;;;;;;;10.00;6.30;;;9.10;77.40;;;6.99;100.00;96623.91;4986080;28;20041;-68
2022/09/22 07:00:27;;;;;;;8.60;6.18;;;9.20;77.00;;;7.17;100.00;96620.41;4980741;28;20031;-68
2022/09/22 07:03:00;;;;;;;11.02;6.63;;;9.40;76.20;;;7.31;100.00;96617.25;5012828;28;20067;-67
2022/09/22 07:05:26;;;;;;;7.68;5.82;;;9.50;75.60;;;7.47;100.00;96611.25;5073420;28;20562;-68
2022/09/22 07:07:52;;;;;;;7.90;5.93;;;9.80;75.50;;;7.68;100.00;96609.03;5071742;28;20045;-68
2022/09/22 07:10:18;;;;;;;8.10;5.68;;;10.10;75.00;;;7.83;100.00;96607.47;5073389;28;20090;-67
2022/09/22 07:12:43;;;;;;;6.72;4.85;;;10.20;73.70;;;8.05;100.00;96610.47;5009335;28;20025;-68
2022/09/22 07:15:09;;;;;;;6.07;4.78;;;10.50;73.50;;;8.26;100.00;96609.03;5030741;28;20124;-68
2022/09/22 07:17:35;;;;;;;9.60;5.72;;;10.60;71.60;;;8.41;100.00;96611.88;5071767;28;20083;-67
2022/09/22 07:20:03;;;;;;;7.32;4.70;;;10.80;70.40;;;8.65;100.00;96618.94;5071633;28;20045;-68
2022/09/22 07:22:29;;;;;;;5.57;4.38;;;11.20;69.80;;;8.88;100.00;96613.84;5073152;28;20473;-67
2022/09/22 07:24:55;;;;;;;5.30;4.50;;;11.60;69.90;;;9.12;100.00;96613.81;5069196;28;20048;-67
2022/09/22 07:27:24;;;;;;;5.55;4.57;;;12.00;68.20;;;9.37;100.00;96613.75;5023115;28;20040;-68
2022/09/22 07:29:53;;;;;;;5.10;4.32;;;12.30;67.60;;;9.68;100.00;96617.22;5028197;28;20107;-68
2022/09/22 07:32:20;;;;;;;5.07;4.20;;;12.90;64.70;;;9.98;100.00;96622.69;5072964;28;20035;-67
2022/09/22 07:34:48;;;;;;;6.20;4.35;;;13.50;62.80;;;10.24;100.00;96623.25;5070811;28;20032;-68
2022/09/22 07:37:14;;;;;;;5.85;4.00;;;14.10;60.10;;;10.53;100.00;96616.47;5071244;28;20394;-68
2022/09/22 07:39:44;;;;;;;17.25;5.97;;;14.80;58.40;;;10.90;100.00;96619.13;5044011;28;20033;-67
2022/09/22 07:42:10;;;;;;;11.82;5.55;;;15.50;56.70;;;11.30;100.00;96622.34;5029285;28;20389;-68
2022/09/22 07:48:34;;;;;;;11.55;5.20;;;17.00;52.40;;;12.05;97.55;96609.00;5072284;28;20035;-69
2022/09/22 07:50:06;;;;;;;15.20;4.65;;;17.70;49.90;;;12.37;95.62;96612.16;5071190;28;20137;-68
2022/09/22 07:52:32;;;;;;;7.03;4.50;;;18.10;49.00;;;12.71;93.80;96609.66;5038983;28;20047;-68
2022/09/22 07:54:58;;;;;;;6.35;4.22;;;18.60;47.40;;;13.06;92.77;96609.72;4995208;28;20054;-69
2022/09/22 07:57:24;;;;;;;5.70;4.10;;;19.30;45.80;;;13.43;91.29;96608.59;4980682;28;20043;-68
2022/09/22 07:59:49;;;;;;;6.60;4.00;;;19.80;44.70;;;13.79;89.54;96597.81;5070946;28;20060;-68
2022/09/22 08:02:15;;;;;;;5.85;4.18;;;20.30;43.60;;;14.17;87.82;96605.28;5071295;28;20521;-68
2022/09/22 08:04:41;;;;;;;6.75;3.90;;;20.70;42.50;;;14.51;85.31;96607.03;5070437;28;20044;-68
2022/09/22 08:07:07;;;;;;;6.00;3.63;;;21.00;41.80;;;14.86;85.23;96605.84;5072158;28;20132;-69
2022/09/22 08:09:32;;;;;;;5.43;3.97;;;21.50;41.10;;;15.27;83.39;96608.28;5041785;28;20046;-68
2022/09/22 08:11:59;;;;;;;6.95;3.85;;;21.90;40.80;;;15.69;81.69;96595.59;4994138;28;20100;-69
2022/09/22 08:14:25;;;;;;;4.35;3.30;;;22.20;40.70;;;16.07;80.17;96598.31;5047328;28;20044;-69
2022/09/22 08:16:52;;;;;;;8.32;3.40;;;22.70;39.20;;;16.36;77.49;96591.63;5070226;28;20100;-68
2022/09/22 08:19:18;;;;;;;4.63;3.30;;;22.80;37.80;;;16.65;74.89;96605.34;5054398;28;20404;-69
2022/09/22 08:21:48;;;;;;;4.25;3.13;;;23.00;37.10;;;16.95;72.25;96603.72;5061619;28;20093;-68
2022/09/22 08:24:16;;;;;;;6.28;3.42;;;23.40;37.70;;;17.24;73.38;96601.44;4998394;28;20035;-69
2022/09/22 08:26:46;;;;;;;5.65;3.15;;;23.50;36.90;;;17.53;71.21;96599.94;5054196;28;20025;-68
2022/09/22 08:29:11;;;;;;;5.75;3.03;;;23.70;36.80;;;17.76;69.75;96597.47;5006193;28;20110;-69
2022/09/22 08:31:40;;;;;;;4.10;3.10;;;24.00;35.90;;;18.00;69.31;96598.41;4970168;28;20031;-69
2022/09/22 08:34:06;;;;;;;4.22;3.15;;;24.20;36.20;;;18.21;67.35;96594.47;4968728;28;20460;-69
2022/09/22 08:36:31;;;;;;;6.40;3.00;;;24.20;35.50;;;18.37;65.86;96588.53;4984159;28;20118;-68
2022/09/22 08:38:58;;;;;;;4.00;2.70;;;24.30;35.20;;;18.57;65.52;96585.59;4993744;28;20030;-68
2022/09/22 08:41:26;;;;;;;6.60;2.38;;;24.50;35.20;;;18.78;62.65;96587.72;5046807;28;20024;-69
2022/09/22 08:43:57;;;;;;;4.00;2.60;;;24.60;34.70;;;18.97;61.49;96583.94;5070070;28;20032;-68
2022/09/22 08:46:33;;;;;;;3.10;2.03;;;24.50;33.60;;;19.20;59.01;96579.69;5054278;28;20024;-69
2022/09/22 08:51:56;;;;;;;3.10;2.00;;;24.90;35.20;;;19.52;57.80;96582.81;5005647;28;20041;-68
2022/09/22 08:54:31;;;;;;;2.83;1.85;;;24.70;34.10;;;19.71;56.19;96578.19;5045662;28;20020;-67
2022/09/22 08:57:25;;;;;;;2.35;1.90;;;24.90;34.20;;;19.89;54.37;96570.00;5057317;28;20033;-67
2022/09/22 09:00:06;;;;;;;3.20;1.90;;;24.80;34.00;;;20.05;54.66;96569.28;5033640;28;20036;-68
2022/09/22 09:02:55;;;;;;;4.22;2.05;;;25.00;34.10;;;20.24;53.09;96566.44;4969854;28;20039;-67
2022/09/22 09:06:03;;;;;;;2.40;1.60;;;24.80;34.00;;;20.49;53.50;96564.25;4953250;28;20035;-67
2022/09/22 09:08:40;;;;;;;2.97;1.77;;;25.00;34.10;;;20.62;54.65;96569.31;4982324;28;20526;-67
2022/09/22 09:11:21;;;;;;;2.42;1.60;;;25.00;33.90;;;20.74;51.56;96572.72;5004795;28;20043;-67
2022/09/22 09:14:34;;;;;;;2.30;1.60;;;24.90;33.80;;;20.93;51.06;96565.28;5004871;28;20043;-67
2022/09/22 09:17:32;;;;;;;3.25;1.67;;;25.00;34.00;;;21.23;51.06;96564.94;5009586;28;20088;-67
2022/09/22 09:20:16;;;;;;;2.92;1.70;;;25.10;34.20;;;21.40;49.99;96560.41;4934539;28;20124;-67
2022/09/22 09:22:56;;;;;;;2.08;1.40;;;25.20;34.00;;;21.54;49.94;96554.72;4949728;28;20165;-67
2022/09/22 09:25:34;;;;;;;4.28;1.63;;;25.30;33.80;;;21.77;49.31;96562.53;4948974;28;20039;-68
2022/09/22 09:28:06;;;;;;;2.58;1.60;;;25.60;33.20;;;21.94;50.29;96552.53;4966713;28;20039;-67
2022/09/22 09:30:53;;;;;;;2.72;1.55;;;25.80;33.30;;;22.30;47.79;96555.69;4977668;28;20055;-67
2022/09/22 09:33:32;;;;;;;3.13;1.92;;;26.20;32.20;;;22.46;46.42;96557.47;5057742;28;20021;-67
2022/09/22 09:35:57;;;;;;;3.75;1.98;;;26.50;31.60;;;22.74;49.74;96558.25;5069328;28;20111;-67
2022/09/22 09:38:33;;;;;;;2.25;1.60;;;27.00;31.50;;;23.04;46.23;96552.34;5052618;28;20419;-68
2022/09/22 09:41:13;;;;;;;2.72;2.00;;;27.60;31.00;;;23.36;44.61;96553.13;5023605;28;20051;-68
2022/09/22 09:43:41;;;;;;;4.30;1.83;;;28.10;29.90;;;23.64;47.43;96551.19;4993824;28;20122;-68
2022/09/22 09:46:36;;;;;;;3.00;1.90;;;28.80;29.30;;;23.90;43.43;96549.41;4951987;28;20533;-68
2022/09/22 09:49:16;;;;;;;2.25;1.58;;;29.50;28.40;;;24.13;43.98;96535.53;4967453;28;20034;-69
2022/09/22 09:51:54;;;;;;;3.08;1.88;;;30.30;27.40;;;24.45;46.33;96539.97;4968645;28;20034;-68
2022/09/22 09:54:20;;;;;;;4.97;2.22;;;31.10;26.40;;;24.99;47.89;96540.28;4944809;28;20126;-68
2022/09/22 09:57:14;;;;;;;3.58;1.90;;;32.00;25.80;;;25.65;41.61;96530.22;5026642;28;20470;-69
2022/09/22 10:02:47;;;;;;;1.88;1.38;;;34.10;23.00;;;26.93;39.69;96529.56;4996010;28;20088;-67
2022/09/22 10:05:15;;;;;;;3.13;1.52;;;35.00;21.50;;;27.39;40.45;96524.59;4996096;28;20184;-67
2022/09/22 10:07:49;;;;;;;3.95;1.50;;;35.60;21.20;;;27.86;38.48;96520.31;5069928;28;20036;-67
2022/09/22 10:10:28;;;;;;;2.78;1.40;;;36.50;20.90;;;28.39;35.36;96515.59;5052524;28;20036;-67
2022/09/22 10:13:03;;;;;;;1.23;0.98;;;37.00;19.40;;;28.86;35.08;96505.69;5068506;28;20078;-68
2022/09/22 10:15:29;;;;;;;2.53;1.00;;;37.60;18.80;;;29.30;39.13;96515.25;5070000;28;20066;-67
2022/09/22 10:17:55;;;;;;;2.58;1.50;;;37.90;18.40;;;29.66;37.78;96510.81;5001782;28;20040;-68
2022/09/22 10:20:32;;;;;;;2.58;1.40;;;38.20;17.90;;;29.97;32.76;96496.63;4957348;28;20039;-68
2022/09/22 10:23:20;;;;;;;7.07;1.50;;;38.30;18.50;;;30.31;30.72;96499.69;4963233;28;20577;-68
2022/09/22 10:25:46;;;;;;;2.53;1.30;;;38.60;17.50;;;30.44;35.48;96496.16;4948108;28;20040;-68
2022/09/22 10:28:19;;;;;;;1.27;1.08;;;38.70;17.70;;;30.80;31.07;96497.28;4967759;28;20096;-68
2022/09/22 10:31:03;;;;;;;1.98;1.20;;;38.90;17.50;;;31.17;30.29;96496.09;4965211;28;20063;-68
2022/09/22 10:33:29;;;;;;;1.95;1.13;;;39.30;17.70;;;31.48;33.13;96501.53;5021727;28;21169;-68
2022/09/22 10:36:08;;;;;;;2.95;1.23;;;39.30;16.50;;;31.73;29.07;96498.16;4982227;28;20028;-68
2022/09/22 10:38:43;;;;;;;3.17;1.20;;;39.40;17.80;;;32.14;29.10;96494.22;5026344;28;20036;-68
2022/09/22 10:41:21;;;;;;;4.07;1.15;;;39.70;17.50;;;32.62;29.76;96485.97;5068314;28;20428;-68
2022/09/22 10:44:06;;;;;;;2.40;1.15;;;39.90;17.30;;;32.93;26.85;96485.00;5068704;28;20103;-67
2022/09/22 10:46:56;;;;;;;1.75;1.20;;;39.90;16.40;;;33.13;25.74;96474.22;5053467;28;20036;-68